Terminal Aerodrome Forecast
Issued by NWS Cleveland, OH

Home | Current Version | Previous Version | Graphics & Text | Print | Product List | Glossary On
Versions: 1 2 3 4 5 6 7 8 9 10 11 12 13 14 15 16 17 18
000
FTUS41 KCLE 151700
TAFERI
TAF
KERI 151737Z 1518/1618 23008KT P6SM SCT045 OVC080
      TEMPO 1520/1524 5SM -RA BR OVC045
     FM160000 29004KT 6SM -RA BR SCT020 OVC045
      TEMPO 1600/1602 4SM -RA BR OVC020
     FM160200 30004KT 5SM -RA BR OVC020
     FM160600 33004KT 5SM BR OVC007
     FM161100 35004KT P6SM OVC015
     FM161400 33006KT P6SM SCT030=

USA.gov is the U.S. government's official web portal to all federal, state and local government web resources and services.